Time;durP1;ratioP1;P1;durP2;ratioP2;P2;SDS_P1;SDS_P2;PMS_P1;PMS_P2;Temp;Humidity;BMP_temperature;BMP_pressure;BME280_temperature;BME280_humidity;BME280_pressure;Samples;Min_cycle;Max_cycle;Signal;HPM_P1;HPM_P2
2023/09/27 00:01:48;;;;;;;4.77;3.30;;;;;;;;;;5007412;28;20223;-55
2023/09/27 00:04:14;;;;;;;2.87;2.63;;;;;;;;;;5004794;28;20182;-54
2023/09/27 00:06:41;;;;;;;4.53;3.17;;;;;;;;;;5007137;28;20206;-55
2023/09/27 00:09:08;;;;;;;3.73;3.43;;;;;;;;;;5006304;28;20635;-55
2023/09/27 00:11:35;;;;;;;3.93;3.27;;;;;;;;;;5006424;28;20178;-54
2023/09/27 00:14:02;;;;;;;3.27;2.97;;;;;;;;;;4999902;28;20207;-53
2023/09/27 00:16:28;;;;;;;2.90;2.70;;;;;;;;;;5001989;28;20211;-53
2023/09/27 00:18:54;;;;;;;3.67;3.37;;;;;;;;;;5009199;28;20536;-53
2023/09/27 00:21:20;;;;;;;3.17;2.87;;;;;;;;;;5009883;28;20262;-53
2023/09/27 00:23:46;;;;;;;4.80;4.03;;;;;;;;;;5009890;28;20239;-53
2023/09/27 00:26:12;;;;;;;3.80;3.33;;;;;;;;;;5009962;28;20630;-53
2023/09/27 00:28:38;;;;;;;3.60;3.30;;;;;;;;;;5009221;28;20233;-53
2023/09/27 00:31:04;;;;;;;4.00;3.60;;;;;;;;;;5008889;28;20442;-53
2023/09/27 00:33:31;;;;;;;5.03;3.40;;;;;;;;;;5010820;28;20707;-52
2023/09/27 00:35:57;;;;;;;3.63;3.33;;;;;;;;;;5007195;28;20265;-52
2023/09/27 00:38:23;;;;;;;3.73;3.43;;;;;;;;;;5006569;28;20182;-53
2023/09/27 00:40:49;;;;;;;3.70;3.40;;;;;;;;;;5010604;28;20254;-52
2023/09/27 00:43:25;;;;;;;4.17;3.77;;;;;;;;;;5008928;28;20183;-53
2023/09/27 00:45:52;;;;;;;4.17;3.73;;;;;;;;;;5009369;28;20202;-53
2023/09/27 00:48:18;;;;;;;3.50;3.20;;;;;;;;;;5004083;28;20180;-52
2023/09/27 00:50:44;;;;;;;3.60;3.00;;;;;;;;;;5005358;28;20576;-52
2023/09/27 00:53:10;;;;;;;3.33;3.00;;;;;;;;;;5009753;28;20184;-52
2023/09/27 00:55:36;;;;;;;4.53;3.87;;;;;;;;;;5005322;28;20186;-52
2023/09/27 00:58:03;;;;;;;3.77;3.47;;;;;;;;;;5006472;28;20234;-52
2023/09/27 01:00:30;;;;;;;3.40;3.00;;;;;;;;;;5009916;28;20188;-52
2023/09/27 01:02:57;;;;;;;3.90;3.60;;;;;;;;;;5008080;28;20175;-52
2023/09/27 01:05:23;;;;;;;3.87;3.57;;;;;;;;;;5009201;28;20876;-52
2023/09/27 01:07:50;;;;;;;3.70;3.30;;;;;;;;;;5005094;28;20657;-52
2023/09/27 01:10:16;;;;;;;3.90;2.83;;;;;;;;;;5002678;28;20170;-52
2023/09/27 01:12:42;;;;;;;3.50;2.93;;;;;;;;;;5155418;23;20662;-48
2023/09/27 01:15:09;;;;;;;3.43;3.23;;;;;;;;;;5013436;23;20634;-50
2023/09/27 01:17:35;;;;;;;3.57;3.27;;;;;;;;;;5009472;28;20211;-50
2023/09/27 01:20:01;;;;;;;3.17;2.97;;;;;;;;;;5008957;28;20582;-50
2023/09/27 01:22:27;;;;;;;3.40;3.10;;;;;;;;;;5009226;28;20177;-50
2023/09/27 01:24:54;;;;;;;3.63;3.27;;;;;;;;;;5008386;28;20515;-50
2023/09/27 01:27:20;;;;;;;4.20;3.17;;;;;;;;;;5008963;28;20203;-49
2023/09/27 01:29:46;;;;;;;4.63;3.30;;;;;;;;;;5008943;28;20182;-50
2023/09/27 01:32:12;;;;;;;3.23;3.03;;;;;;;;;;5010947;28;20248;-49
2023/09/27 01:34:38;;;;;;;3.77;3.40;;;;;;;;;;4990688;28;20818;-50
2023/09/27 01:37:07;;;;;;;5.63;4.00;;;;;;;;;;5010341;28;20842;-50
2023/09/27 01:39:33;;;;;;;4.10;3.50;;;;;;;;;;5009227;28;20205;-50
2023/09/27 01:41:59;;;;;;;5.10;3.20;;;;;;;;;;5007374;28;20538;-50
2023/09/27 01:44:25;;;;;;;3.23;3.00;;;;;;;;;;5006847;28;20577;-50
2023/09/27 01:46:51;;;;;;;3.63;3.00;;;;;;;;;;5008337;28;20690;-50
2023/09/27 01:49:17;;;;;;;3.90;3.53;;;;;;;;;;4989576;28;20610;-50
2023/09/27 01:51:43;;;;;;;5.73;3.90;;;;;;;;;;5008514;28;20210;-50
2023/09/27 01:54:09;;;;;;;3.50;3.20;;;;;;;;;;5008143;28;20546;-50
2023/09/27 01:56:36;;;;;;;6.30;3.37;;;;;;;;;;5007365;28;20565;-50
2023/09/27 01:59:02;;;;;;;3.90;3.60;;;;;;;;;;4991008;28;20269;-49
2023/09/27 02:01:28;;;;;;;4.17;3.87;;;;;;;;;;5009369;28;20520;-50
2023/09/27 02:03:54;;;;;;;7.07;3.87;;;;;;;;;;5009073;28;20194;-50
2023/09/27 02:06:20;;;;;;;4.00;3.57;;;;;;;;;;5008389;28;20213;-50
2023/09/27 02:08:46;;;;;;;4.13;3.50;;;;;;;;;;5008433;28;20586;-49
2023/09/27 02:11:13;;;;;;;3.77;3.37;;;;;;;;;;5000497;28;20270;-49
2023/09/27 02:13:39;;;;;;;4.33;3.93;;;;;;;;;;5007540;28;20203;-50
2023/09/27 02:16:05;;;;;;;5.33;3.40;;;;;;;;;;5008265;28;20202;-50
2023/09/27 02:18:31;;;;;;;3.80;3.50;;;;;;;;;;5007828;28;20190;-50
2023/09/27 02:20:57;;;;;;;3.83;3.53;;;;;;;;;;5007638;28;20186;-50
2023/09/27 02:23:23;;;;;;;3.60;3.30;;;;;;;;;;5008688;28;20195;-51
2023/09/27 02:25:58;;;;;;;3.67;3.37;;;;;;;;;;5004691;28;20569;-49
2023/09/27 02:28:25;;;;;;;3.60;3.30;;;;;;;;;;5006888;28;20189;-50
2023/09/27 02:30:51;;;;;;;4.83;3.57;;;;;;;;;;5007880;28;20187;-48
2023/09/27 02:33:21;;;;;;;3.80;3.50;;;;;;;;;;5006522;28;20178;-48
2023/09/27 02:35:47;;;;;;;4.67;3.60;;;;;;;;;;5005196;28;20189;-49
2023/09/27 02:38:13;;;;;;;4.47;3.37;;;;;;;;;;5007476;28;20187;-49
2023/09/27 02:40:40;;;;;;;5.43;3.33;;;;;;;;;;5007986;28;20221;-49
2023/09/27 02:43:06;;;;;;;4.47;4.03;;;;;;;;;;5008009;28;20178;-49
2023/09/27 02:45:34;;;;;;;3.87;3.50;;;;;;;;;;5005460;28;20252;-50
2023/09/27 02:48:00;;;;;;;3.57;3.20;;;;;;;;;;5008446;28;20187;-49
2023/09/27 02:50:26;;;;;;;3.53;3.23;;;;;;;;;;5007566;28;20192;-49
2023/09/27 02:52:52;;;;;;;3.73;3.30;;;;;;;;;;5008688;28;20214;-49
2023/09/27 02:55:18;;;;;;;4.10;3.70;;;;;;;;;;5004777;28;20198;-49
2023/09/27 02:57:50;;;;;;;3.57;3.27;;;;;;;;;;5005425;28;20712;-49
2023/09/27 03:00:17;;;;;;;4.67;3.50;;;;;;;;;;5004268;28;20200;-50
2023/09/27 03:02:43;;;;;;;3.80;3.50;;;;;;;;;;5008614;28;20206;-49
2023/09/27 03:05:10;;;;;;;3.93;3.53;;;;;;;;;;5007019;28;20613;-49
2023/09/27 03:07:38;;;;;;;3.80;3.50;;;;;;;;;;5007839;28;20660;-49
2023/09/27 03:10:10;;;;;;;4.33;3.70;;;;;;;;;;5008570;28;20190;-50
2023/09/27 03:12:38;;;;;;;4.40;4.10;;;;;;;;;;5008561;28;20193;-50
2023/09/27 03:15:04;;;;;;;3.80;3.50;;;;;;;;;;5004909;28;20308;-49
2023/09/27 03:17:30;;;;;;;6.03;3.73;;;;;;;;;;5008642;28;20190;-49
2023/09/27 03:19:56;;;;;;;4.00;3.67;;;;;;;;;;5008902;28;20671;-49
2023/09/27 03:22:22;;;;;;;4.13;3.77;;;;;;;;;;5008065;28;20182;-49
2023/09/27 03:24:48;;;;;;;4.13;3.73;;;;;;;;;;5008723;28;20237;-49
2023/09/27 03:27:14;;;;;;;4.13;3.50;;;;;;;;;;5007275;28;20242;-49
2023/09/27 03:29:40;;;;;;;4.50;3.67;;;;;;;;;;5007277;28;20503;-49
2023/09/27 03:32:07;;;;;;;4.27;3.97;;;;;;;;;;5006848;28;20191;-49
2023/09/27 03:34:33;;;;;;;3.80;3.40;;;;;;;;;;5007379;28;20183;-50
2023/09/27 03:36:59;;;;;;;3.30;3.00;;;;;;;;;;4988420;28;20190;-51
2023/09/27 03:39:28;;;;;;;4.43;4.03;;;;;;;;;;5006927;28;20188;-51
2023/09/27 03:41:54;;;;;;;4.07;3.77;;;;;;;;;;5007673;28;20186;-50
2023/09/27 03:44:20;;;;;;;3.50;3.23;;;;;;;;;;5005760;28;20190;-51
2023/09/27 03:46:46;;;;;;;5.07;4.33;;;;;;;;;;5006395;28;20210;-51
2023/09/27 03:49:13;;;;;;;4.17;3.80;;;;;;;;;;5010443;28;20599;-50
2023/09/27 03:51:39;;;;;;;4.03;3.47;;;;;;;;;;5006038;28;20194;-50
2023/09/27 03:54:05;;;;;;;3.97;3.60;;;;;;;;;;5010930;28;20174;-50
2023/09/27 03:56:31;;;;;;;3.73;3.43;;;;;;;;;;4991124;28;20631;-50
2023/09/27 03:58:58;;;;;;;4.50;3.77;;;;;;;;;;5008223;28;20187;-51
2023/09/27 04:01:24;;;;;;;5.70;4.53;;;;;;;;;;5010763;28;20580;-51
2023/09/27 04:03:50;;;;;;;4.47;4.07;;;;;;;;;;5011832;28;20186;-51
2023/09/27 04:06:16;;;;;;;3.97;3.60;;;;;;;;;;5008651;28;20228;-51
2023/09/27 04:08:42;;;;;;;6.87;3.73;;;;;;;;;;5010460;28;20614;-50
2023/09/27 04:11:09;;;;;;;3.77;3.47;;;;;;;;;;5011420;28;20194;-50
2023/09/27 04:13:35;;;;;;;4.13;3.70;;;;;;;;;;5010524;28;20205;-51
2023/09/27 04:16:01;;;;;;;3.33;3.13;;;;;;;;;;5008816;28;20260;-51
2023/09/27 04:18:27;;;;;;;4.93;3.93;;;;;;;;;;5011019;28;21043;-51
2023/09/27 04:20:53;;;;;;;3.73;3.47;;;;;;;;;;5009506;28;20190;-51
2023/09/27 04:23:19;;;;;;;5.10;4.67;;;;;;;;;;5011121;28;20183;-50
2023/09/27 04:25:45;;;;;;;3.90;3.60;;;;;;;;;;5010203;28;20194;-51
2023/09/27 04:28:11;;;;;;;4.67;4.27;;;;;;;;;;5002954;28;20594;-50
2023/09/27 04:30:37;;;;;;;3.73;3.47;;;;;;;;;;5009793;28;20182;-50
2023/09/27 04:33:05;;;;;;;4.00;3.60;;;;;;;;;;5009491;28;20182;-50
2023/09/27 04:35:31;;;;;;;4.50;4.10;;;;;;;;;;5009031;28;20244;-51
2023/09/27 04:37:57;;;;;;;3.87;3.57;;;;;;;;;;5008805;28;20626;-51
2023/09/27 04:40:23;;;;;;;4.50;3.73;;;;;;;;;;5010914;28;20186;-51
2023/09/27 04:42:49;;;;;;;3.90;3.50;;;;;;;;;;5009597;28;20681;-50
2023/09/27 04:45:15;;;;;;;5.03;3.87;;;;;;;;;;5006672;28;20273;-49
2023/09/27 04:47:44;;;;;;;3.80;3.50;;;;;;;;;;5008887;28;20260;-49
2023/09/27 04:50:10;;;;;;;3.23;2.90;;;;;;;;;;4991385;28;20175;-50
2023/09/27 04:52:39;;;;;;;6.13;3.70;;;;;;;;;;4996332;28;20186;-49
2023/09/27 04:55:05;;;;;;;3.53;3.23;;;;;;;;;;5003185;28;20326;-51
2023/09/27 04:57:31;;;;;;;4.20;3.50;;;;;;;;;;5005889;28;20183;-52
2023/09/27 04:59:58;;;;;;;3.60;3.30;;;;;;;;;;5007868;28;20190;-51
2023/09/27 05:02:24;;;;;;;3.97;3.67;;;;;;;;;;5006631;28;20527;-51
2023/09/27 05:04:51;;;;;;;3.97;3.33;;;;;;;;;;5010297;28;20217;-51
2023/09/27 05:07:20;;;;;;;5.03;4.53;;;;;;;;;;5007876;28;20782;-53
2023/09/27 05:09:46;;;;;;;3.60;3.30;;;;;;;;;;5010963;28;20175;-53
2023/09/27 05:12:13;;;;;;;4.77;3.40;;;;;;;;;;5009866;28;20183;-53
2023/09/27 05:14:39;;;;;;;3.70;3.20;;;;;;;;;;5009205;28;20304;-51
2023/09/27 05:17:05;;;;;;;3.43;3.00;;;;;;;;;;5006412;28;20593;-52
2023/09/27 05:19:31;;;;;;;3.50;3.20;;;;;;;;;;5009169;28;20189;-52
2023/09/27 05:21:58;;;;;;;6.00;3.47;;;;;;;;;;5007050;28;20211;-52
2023/09/27 05:24:24;;;;;;;3.67;3.37;;;;;;;;;;5007701;28;20659;-51
2023/09/27 05:26:50;;;;;;;3.50;3.20;;;;;;;;;;5006764;28;20211;-52
2023/09/27 05:29:17;;;;;;;4.13;3.33;;;;;;;;;;5010010;28;20235;-52
2023/09/27 05:31:46;;;;;;;4.10;3.47;;;;;;;;;;5008159;28;21087;-52
2023/09/27 05:34:12;;;;;;;3.70;3.40;;;;;;;;;;5008582;28;20340;-52
2023/09/27 05:36:40;;;;;;;3.70;3.40;;;;;;;;;;5006427;28;20183;-52
2023/09/27 05:39:08;;;;;;;5.17;4.00;;;;;;;;;;5004984;28;20729;-51
2023/09/27 05:41:35;;;;;;;3.80;3.50;;;;;;;;;;5007219;28;20646;-52
2023/09/27 05:44:01;;;;;;;3.60;3.30;;;;;;;;;;5007574;28;20187;-52
2023/09/27 05:46:33;;;;;;;4.77;3.83;;;;;;;;;;5009913;28;20462;-53
2023/09/27 05:49:01;;;;;;;3.83;3.50;;;;;;;;;;5009588;28;20897;-52
2023/09/27 05:51:30;;;;;;;3.57;3.27;;;;;;;;;;5009057;28;20635;-52
2023/09/27 05:53:56;;;;;;;4.13;3.60;;;;;;;;;;5010779;28;20168;-52
2023/09/27 05:56:22;;;;;;;3.40;3.10;;;;;;;;;;5010588;28;20185;-52
2023/09/27 05:58:48;;;;;;;3.20;2.90;;;;;;;;;;5005661;28;20243;-52
2023/09/27 06:01:19;;;;;;;5.20;3.20;;;;;;;;;;5008209;28;20212;-52
2023/09/27 06:03:45;;;;;;;3.37;3.13;;;;;;;;;;5008001;28;20194;-49
2023/09/27 06:06:12;;;;;;;3.67;3.37;;;;;;;;;;5008575;28;20571;-50
2023/09/27 06:08:38;;;;;;;5.30;3.40;;;;;;;;;;5009552;28;20624;-49
2023/09/27 06:11:04;;;;;;;3.90;3.20;;;;;;;;;;5006553;28;20192;-49
2023/09/27 06:13:31;;;;;;;3.47;3.23;;;;;;;;;;5004368;28;20194;-51
2023/09/27 06:15:58;;;;;;;3.80;3.30;;;;;;;;;;4990542;28;20195;-51
2023/09/27 06:18:24;;;;;;;4.23;3.13;;;;;;;;;;5009061;28;20196;-52
2023/09/27 06:20:52;;;;;;;4.17;3.50;;;;;;;;;;5005615;28;20193;-51
2023/09/27 06:23:19;;;;;;;3.53;3.23;;;;;;;;;;5001990;28;20250;-52
2023/09/27 06:25:46;;;;;;;4.97;2.80;;;;;;;;;;5006454;28;20236;-52
2023/09/27 06:28:16;;;;;;;3.27;3.00;;;;;;;;;;5009349;28;20186;-56
2023/09/27 06:30:42;;;;;;;3.70;3.40;;;;;;;;;;5008721;28;20182;-53
2023/09/27 06:33:12;;;;;;;3.77;3.47;;;;;;;;;;5008381;28;20217;-53
2023/09/27 06:35:38;;;;;;;3.57;3.27;;;;;;;;;;5006162;28;20178;-53
2023/09/27 06:38:05;;;;;;;3.63;3.33;;;;;;;;;;5004866;28;20289;-53
2023/09/27 06:40:31;;;;;;;3.80;3.50;;;;;;;;;;5007143;28;20187;-53
2023/09/27 06:42:57;;;;;;;5.57;3.70;;;;;;;;;;4990278;28;20233;-53
2023/09/27 06:45:25;;;;;;;3.63;3.33;;;;;;;;;;5006635;28;20198;-52
2023/09/27 06:47:51;;;;;;;5.33;3.53;;;;;;;;;;5008093;28;20209;-52
2023/09/27 06:50:17;;;;;;;3.17;2.90;;;;;;;;;;5007094;28;20186;-52
2023/09/27 06:52:45;;;;;;;3.23;2.97;;;;;;;;;;5006407;28;20194;-51
2023/09/27 06:55:12;;;;;;;3.63;3.33;;;;;;;;;;5008274;28;20273;-53
2023/09/27 06:57:39;;;;;;;3.40;3.20;;;;;;;;;;5007003;28;20600;-54
2023/09/27 07:00:24;;;;;;;4.43;3.30;;;;;;;;;;5007381;28;20434;-52
2023/09/27 07:02:54;;;;;;;3.47;3.17;;;;;;;;;;5005565;28;20237;-51
2023/09/27 07:05:21;;;;;;;2.90;2.70;;;;;;;;;;5006543;28;20194;-51
2023/09/27 07:07:48;;;;;;;4.20;3.90;;;;;;;;;;5004301;28;20882;-54
2023/09/27 07:10:14;;;;;;;3.30;3.00;;;;;;;;;;5008660;28;20645;-53
2023/09/27 07:12:41;;;;;;;3.10;2.83;;;;;;;;;;5005518;28;20186;-51
2023/09/27 07:15:13;;;;;;;3.47;3.17;;;;;;;;;;5006837;28;20235;-52
2023/09/27 07:17:43;;;;;;;3.20;3.00;;;;;;;;;;5000500;28;20194;-52
2023/09/27 07:22:45;;;;;;;3.33;3.00;;;;;;;;;;5005912;28;20283;-52
2023/09/27 07:25:18;;;;;;;3.10;2.90;;;;;;;;;;5007619;28;20571;-51
2023/09/27 07:27:46;;;;;;;3.50;3.20;;;;;;;;;;5006939;28;20673;-51
2023/09/27 07:30:12;;;;;;;3.37;3.07;;;;;;;;;;5007587;28;20182;-51
2023/09/27 07:32:43;;;;;;;3.93;3.10;;;;;;;;;;4990403;28;20185;-51
2023/09/27 07:35:10;;;;;;;3.17;2.97;;;;;;;;;;5003292;28;21461;-51
2023/09/27 07:37:39;;;;;;;3.23;2.93;;;;;;;;;;5007436;28;20537;-51
2023/09/27 07:40:09;;;;;;;3.40;3.10;;;;;;;;;;5005606;28;20240;-51
2023/09/27 07:42:35;;;;;;;4.23;3.50;;;;;;;;;;5005713;28;20213;-51
2023/09/27 07:45:02;;;;;;;3.47;3.17;;;;;;;;;;5006554;28;20186;-51
2023/09/27 07:47:28;;;;;;;3.17;2.97;;;;;;;;;;5007301;28;20307;-52
2023/09/27 07:49:54;;;;;;;3.43;3.13;;;;;;;;;;5007348;28;20255;-51
2023/09/27 07:52:20;;;;;;;3.50;3.20;;;;;;;;;;5006959;28;20192;-51
2023/09/27 07:54:46;;;;;;;4.03;3.67;;;;;;;;;;5007117;28;20654;-51
2023/09/27 07:57:14;;;;;;;3.80;3.50;;;;;;;;;;4999622;28;20181;-51
2023/09/27 07:59:40;;;;;;;3.93;3.63;;;;;;;;;;5008119;28;20546;-51
2023/09/27 08:02:09;;;;;;;3.30;3.00;;;;;;;;;;4987714;28;20182;-51
2023/09/27 08:04:39;;;;;;;4.33;3.63;;;;;;;;;;5005967;28;20206;-51
2023/09/27 08:07:05;;;;;;;5.37;3.57;;;;;;;;;;4987424;28;20674;-51
2023/09/27 08:09:38;;;;;;;5.17;3.90;;;;;;;;;;5007691;28;20893;-51
2023/09/27 08:12:04;;;;;;;6.47;4.20;;;;;;;;;;5007863;28;20282;-51
2023/09/27 08:14:30;;;;;;;6.23;4.23;;;;;;;;;;5007679;28;20226;-52
2023/09/27 08:16:57;;;;;;;5.10;4.17;;;;;;;;;;5006858;28;20654;-52
2023/09/27 08:19:24;;;;;;;5.53;3.63;;;;;;;;;;5006875;28;20545;-51
2023/09/27 08:21:50;;;;;;;5.10;3.60;;;;;;;;;;5005736;28;20298;-51
2023/09/27 08:24:19;;;;;;;6.17;3.57;;;;;;;;;;5007551;28;20559;-52
2023/09/27 08:26:48;;;;;;;4.23;3.83;;;;;;;;;;5006343;28;20214;-51
2023/09/27 08:29:15;;;;;;;3.77;3.47;;;;;;;;;;5007070;28;20198;-51
2023/09/27 08:31:41;;;;;;;4.00;3.60;;;;;;;;;;5006889;28;20218;-51
2023/09/27 08:34:07;;;;;;;5.03;3.87;;;;;;;;;;5006483;28;20217;-52
2023/09/27 08:36:33;;;;;;;4.10;3.70;;;;;;;;;;5009983;28;20886;-52
2023/09/27 08:38:59;;;;;;;4.27;3.87;;;;;;;;;;5010666;28;20196;-51
2023/09/27 08:41:25;;;;;;;4.93;3.87;;;;;;;;;;5009014;28;20528;-51
2023/09/27 08:43:52;;;;;;;4.20;3.60;;;;;;;;;;5009565;28;20236;-51
2023/09/27 08:46:20;;;;;;;3.73;3.43;;;;;;;;;;5009930;28;20657;-51
2023/09/27 08:48:46;;;;;;;4.73;4.27;;;;;;;;;;5007802;28;20572;-51
2023/09/27 08:51:12;;;;;;;4.63;4.10;;;;;;;;;;5006724;28;20183;-51
2023/09/27 08:53:42;;;;;;;3.67;3.30;;;;;;;;;;5008744;28;20218;-51
2023/09/27 08:56:09;;;;;;;4.23;3.83;;;;;;;;;;4990163;28;20225;-51
2023/09/27 08:58:36;;;;;;;4.33;3.70;;;;;;;;;;5010856;28;20198;-51
2023/09/27 09:01:02;;;;;;;5.67;3.77;;;;;;;;;;5009183;28;20657;-51
2023/09/27 09:03:30;;;;;;;3.90;3.47;;;;;;;;;;5007008;28;20186;-51
2023/09/27 09:05:56;;;;;;;3.60;3.30;;;;;;;;;;5009252;28;20217;-51
2023/09/27 09:08:22;;;;;;;5.13;3.67;;;;;;;;;;5005047;28;20186;-51
2023/09/27 09:10:48;;;;;;;6.40;3.30;;;;;;;;;;5009082;28;20198;-51
2023/09/27 09:13:15;;;;;;;4.23;3.20;;;;;;;;;;5010261;28;20174;-52
2023/09/27 09:15:44;;;;;;;3.47;3.17;;;;;;;;;;5009364;28;20229;-52
2023/09/27 09:18:28;;;;;;;3.27;2.97;;;;;;;;;;5009475;28;20186;-51
2023/09/27 09:20:54;;;;;;;6.47;3.53;;;;;;;;;;5004453;28;20202;-51
2023/09/27 09:23:31;;;;;;;4.77;3.17;;;;;;;;;;5009255;28;20527;-52
2023/09/27 09:25:58;;;;;;;3.47;3.17;;;;;;;;;;4985549;28;20578;-51
2023/09/27 09:28:25;;;;;;;3.70;3.07;;;;;;;;;;5009171;28;20273;-51
2023/09/27 09:30:52;;;;;;;4.53;3.03;;;;;;;;;;5010535;28;20307;-51
2023/09/27 09:33:28;;;;;;;4.47;3.37;;;;;;;;;;5007765;28;20376;-50
2023/09/27 09:35:55;;;;;;;3.30;2.93;;;;;;;;;;5004510;28;20187;-51
2023/09/27 09:38:33;;;;;;;4.33;3.93;;;;;;;;;;5009108;28;20189;-51
2023/09/27 09:41:02;;;;;;;4.33;3.33;;;;;;;;;;5008815;28;20641;-51
2023/09/27 09:43:36;;;;;;;3.60;2.73;;;;;;;;;;4991717;28;20242;-51
2023/09/27 09:46:06;;;;;;;3.40;3.10;;;;;;;;;;5007471;28;20740;-52
2023/09/27 09:48:33;;;;;;;3.90;3.30;;;;;;;;;;5002517;28;20182;-53
2023/09/27 09:51:08;;;;;;;3.57;3.27;;;;;;;;;;5008965;28;20186;-53
2023/09/27 09:53:38;;;;;;;4.27;3.40;;;;;;;;;;5010091;28;20185;-52
2023/09/27 09:56:05;;;;;;;4.20;3.10;;;;;;;;;;5009320;28;20184;-52
2023/09/27 09:58:31;;;;;;;4.97;3.13;;;;;;;;;;5010178;28;20181;-53
2023/09/27 10:00:59;;;;;;;4.07;3.37;;;;;;;;;;5004940;28;20181;-52
2023/09/27 10:03:30;;;;;;;3.45;3.15;;;;;;;;;;5005582;28;20777;-52
2023/09/27 10:05:57;;;;;;;3.57;3.27;;;;;;;;;;5005869;28;20228;-52
2023/09/27 10:08:25;;;;;;;3.47;3.17;;;;;;;;;;5002748;28;20187;-52
2023/09/27 10:10:51;;;;;;;3.10;2.47;;;;;;;;;;5002898;28;20176;-54
2023/09/27 10:13:18;;;;;;;3.10;2.80;;;;;;;;;;5008882;28;20210;-52
2023/09/27 10:15:44;;;;;;;5.00;2.77;;;;;;;;;;5008954;28;20223;-52
2023/09/27 10:18:22;;;;;;;3.37;3.03;;;;;;;;;;5004066;28;20525;-53
2023/09/27 10:21:04;;;;;;;3.53;3.23;;;;;;;;;;5006720;28;20241;-52
2023/09/27 10:23:53;;;;;;;4.30;3.90;;;;;;;;;;5003167;28;20187;-52
2023/09/27 10:26:20;;;;;;;3.53;3.23;;;;;;;;;;4995820;28;20222;-52
2023/09/27 10:29:06;;;;;;;3.97;3.30;;;;;;;;;;5006579;28;20187;-52
2023/09/27 10:31:34;;;;;;;3.60;3.30;;;;;;;;;;4955896;28;20205;-53
2023/09/27 10:34:00;;;;;;;4.10;3.03;;;;;;;;;;5008406;28;20237;-52
2023/09/27 10:36:27;;;;;;;3.40;3.10;;;;;;;;;;5007423;28;20190;-52
2023/09/27 10:38:53;;;;;;;4.63;3.63;;;;;;;;;;5007396;28;20578;-52
2023/09/27 10:41:38;;;;;;;2.90;2.70;;;;;;;;;;5008524;28;20647;-52
2023/09/27 10:44:04;;;;;;;3.67;3.37;;;;;;;;;;5008008;28;22328;-52
2023/09/27 10:46:43;;;;;;;3.13;2.93;;;;;;;;;;5008237;28;20620;-53
2023/09/27 10:49:09;;;;;;;3.50;3.20;;;;;;;;;;5004053;28;20574;-53
2023/09/27 10:51:35;;;;;;;3.43;3.13;;;;;;;;;;5006933;28;20180;-52
2023/09/27 10:54:11;;;;;;;3.50;3.20;;;;;;;;;;5005490;28;20178;-53
2023/09/27 10:56:39;;;;;;;3.13;2.83;;;;;;;;;;5006057;28;20179;-51
2023/09/27 10:59:05;;;;;;;3.53;2.93;;;;;;;;;;5008359;28;20604;-51
2023/09/27 11:01:31;;;;;;;3.20;2.90;;;;;;;;;;5005962;28;20195;-51
2023/09/27 11:04:01;;;;;;;3.20;2.90;;;;;;;;;;5006672;28;20678;-51
2023/09/27 11:06:28;;;;;;;3.33;2.90;;;;;;;;;;5006162;28;20210;-51
2023/09/27 11:09:07;;;;;;;4.63;3.67;;;;;;;;;;5006500;28;20662;-52
2023/09/27 11:11:34;;;;;;;3.60;3.30;;;;;;;;;;5003982;28;20209;-52
2023/09/27 11:14:00;;;;;;;2.97;2.67;;;;;;;;;;5007059;28;20653;-52
2023/09/27 11:16:26;;;;;;;2.80;2.60;;;;;;;;;;5007843;28;20178;-51
2023/09/27 11:18:52;;;;;;;3.33;3.10;;;;;;;;;;5006077;28;20773;-52
2023/09/27 11:21:19;;;;;;;4.07;3.13;;;;;;;;;;5006888;28;20308;-51
2023/09/27 11:23:59;;;;;;;3.13;2.77;;;;;;;;;;5006742;28;20337;-51
2023/09/27 11:26:26;;;;;;;2.93;2.63;;;;;;;;;;4998122;28;20205;-50
2023/09/27 11:28:58;;;;;;;3.43;3.13;;;;;;;;;;4989010;28;20193;-51
2023/09/27 11:31:27;;;;;;;3.90;3.50;;;;;;;;;;5007926;28;20282;-51
2023/09/27 11:33:54;;;;;;;3.70;3.27;;;;;;;;;;5006448;28;20178;-51
2023/09/27 11:36:20;;;;;;;3.27;3.00;;;;;;;;;;5004807;28;20187;-51
2023/09/27 11:38:52;;;;;;;3.20;2.90;;;;;;;;;;5006435;28;20244;-51
2023/09/27 11:41:19;;;;;;;3.53;2.80;;;;;;;;;;5007540;28;20217;-51
2023/09/27 11:43:45;;;;;;;3.90;2.97;;;;;;;;;;5007463;28;20197;-51
2023/09/27 11:46:11;;;;;;;4.27;3.23;;;;;;;;;;5006477;28;20630;-51
2023/09/27 11:48:40;;;;;;;3.10;2.77;;;;;;;;;;5007068;28;20183;-50
2023/09/27 11:51:07;;;;;;;2.73;2.53;;;;;;;;;;5006949;28;20179;-51
2023/09/27 11:53:33;;;;;;;5.37;3.20;;;;;;;;;;5006634;28;20523;-51
2023/09/27 11:56:00;;;;;;;3.47;3.10;;;;;;;;;;5006402;28;20187;-51
2023/09/27 11:58:26;;;;;;;3.20;3.00;;;;;;;;;;5006747;28;20171;-51
2023/09/27 12:00:52;;;;;;;3.63;3.20;;;;;;;;;;5006866;28;20545;-51
2023/09/27 12:03:18;;;;;;;4.33;4.03;;;;;;;;;;5007604;28;20198;-51
2023/09/27 12:05:44;;;;;;;4.00;2.87;;;;;;;;;;5007008;28;20187;-50
2023/09/27 12:08:10;;;;;;;3.37;3.07;;;;;;;;;;5006693;28;20264;-52
2023/09/27 12:10:37;;;;;;;4.57;2.90;;;;;;;;;;5010435;28;20190;-52
2023/09/27 12:13:03;;;;;;;3.60;3.30;;;;;;;;;;5009041;28;20238;-52
2023/09/27 12:15:29;;;;;;;3.87;3.47;;;;;;;;;;5010560;28;20230;-52
2023/09/27 12:17:55;;;;;;;3.43;3.13;;;;;;;;;;5007523;28;20187;-54
2023/09/27 12:20:22;;;;;;;4.07;3.77;;;;;;;;;;5009032;28;20195;-54
2023/09/27 12:22:48;;;;;;;4.80;3.20;;;;;;;;;;5008949;28;20194;-54
2023/09/27 12:25:14;;;;;;;3.50;3.20;;;;;;;;;;5010011;28;20711;-54
2023/09/27 12:27:41;;;;;;;3.47;3.17;;;;;;;;;;5010962;28;20211;-52
2023/09/27 12:30:08;;;;;;;3.37;3.07;;;;;;;;;;5009665;28;20665;-50
2023/09/27 12:32:34;;;;;;;3.10;2.90;;;;;;;;;;5010243;28;20227;-52
2023/09/27 12:35:00;;;;;;;3.50;3.10;;;;;;;;;;5008034;28;20200;-51
2023/09/27 12:37:26;;;;;;;3.53;3.23;;;;;;;;;;5008761;28;20189;-51
2023/09/27 12:39:53;;;;;;;3.60;3.30;;;;;;;;;;4985207;28;20281;-51
2023/09/27 12:42:20;;;;;;;3.70;3.37;;;;;;;;;;5010337;28;20186;-51
2023/09/27 12:44:46;;;;;;;3.80;3.50;;;;;;;;;;5010448;28;20188;-51
2023/09/27 12:47:14;;;;;;;2.87;2.67;;;;;;;;;;4993111;28;20207;-51
2023/09/27 12:49:40;;;;;;;3.00;2.80;;;;;;;;;;4991603;28;20196;-51
2023/09/27 12:52:06;;;;;;;2.80;2.47;;;;;;;;;;5009541;28;20181;-52
2023/09/27 12:54:32;;;;;;;3.67;3.10;;;;;;;;;;5009119;28;20236;-52
2023/09/27 12:56:59;;;;;;;3.13;2.93;;;;;;;;;;5009488;28;20240;-51
2023/09/27 12:59:26;;;;;;;3.03;2.83;;;;;;;;;;5010255;28;20190;-51
2023/09/27 13:01:52;;;;;;;3.00;2.80;;;;;;;;;;5009731;28;20266;-51
2023/09/27 13:04:19;;;;;;;2.60;2.40;;;;;;;;;;5009717;28;20583;-51
2023/09/27 13:06:45;;;;;;;3.10;2.90;;;;;;;;;;5007329;28;20295;-51
2023/09/27 13:09:11;;;;;;;3.30;3.00;;;;;;;;;;5008516;28;20206;-52
2023/09/27 13:11:37;;;;;;;3.10;2.90;;;;;;;;;;5009557;28;20190;-52
2023/09/27 13:14:03;;;;;;;2.80;2.60;;;;;;;;;;4991301;28;20218;-51
2023/09/27 13:16:29;;;;;;;3.23;2.93;;;;;;;;;;4989169;28;20245;-52
2023/09/27 13:18:56;;;;;;;3.23;2.90;;;;;;;;;;5007390;28;20208;-52
2023/09/27 13:21:22;;;;;;;2.80;2.60;;;;;;;;;;5006349;28;20732;-52
2023/09/27 13:23:48;;;;;;;2.80;2.60;;;;;;;;;;5005160;28;20170;-51
2023/09/27 13:26:14;;;;;;;2.53;2.33;;;;;;;;;;5005961;28;20202;-51
2023/09/27 13:28:40;;;;;;;3.60;2.87;;;;;;;;;;5003810;28;20182;-49
2023/09/27 13:31:06;;;;;;;3.50;3.20;;;;;;;;;;5008963;28;20649;-51
2023/09/27 13:33:34;;;;;;;3.47;3.17;;;;;;;;;;5008914;28;20171;-51
2023/09/27 13:36:00;;;;;;;4.80;3.43;;;;;;;;;;5005324;28;20179;-50
2023/09/27 13:38:26;;;;;;;3.47;2.90;;;;;;;;;;5009493;28;20189;-52
2023/09/27 13:40:52;;;;;;;2.77;2.57;;;;;;;;;;5009889;28;20186;-52
2023/09/27 13:43:19;;;;;;;4.33;3.70;;;;;;;;;;5007938;28;20552;-52
2023/09/27 13:45:46;;;;;;;3.43;3.07;;;;;;;;;;5007246;28;20738;-55
2023/09/27 13:48:12;;;;;;;3.40;3.03;;;;;;;;;;5009347;28;20195;-52
2023/09/27 13:50:38;;;;;;;5.70;2.97;;;;;;;;;;5005821;28;20670;-52
2023/09/27 13:53:04;;;;;;;4.10;3.40;;;;;;;;;;5001537;28;20182;-51
2023/09/27 13:55:30;;;;;;;4.00;3.33;;;;;;;;;;5008905;28;20180;-52
2023/09/27 13:57:57;;;;;;;5.93;3.03;;;;;;;;;;4986877;28;20179;-52
2023/09/27 14:00:23;;;;;;;2.87;2.67;;;;;;;;;;5008079;28;20710;-51
2023/09/27 14:02:49;;;;;;;3.53;3.23;;;;;;;;;;5007488;28;20246;-51
2023/09/27 14:05:15;;;;;;;2.80;2.40;;;;;;;;;;5008555;28;20206;-51
2023/09/27 14:07:42;;;;;;;4.33;2.97;;;;;;;;;;5006319;28;20201;-49
2023/09/27 14:10:08;;;;;;;3.47;2.70;;;;;;;;;;5009435;28;20176;-49
2023/09/27 14:12:35;;;;;;;3.90;3.10;;;;;;;;;;5007746;28;21053;-54
2023/09/27 14:15:01;;;;;;;2.70;2.50;;;;;;;;;;5007422;28;20324;-54
2023/09/27 14:17:27;;;;;;;3.17;2.57;;;;;;;;;;5007024;28;20189;-54
2023/09/27 14:19:55;;;;;;;3.03;2.73;;;;;;;;;;5007973;28;20249;-54
2023/09/27 14:22:21;;;;;;;3.63;3.07;;;;;;;;;;4980627;28;20193;-54
2023/09/27 14:24:48;;;;;;;3.40;2.63;;;;;;;;;;5006501;28;20189;-54
2023/09/27 14:27:14;;;;;;;3.23;2.90;;;;;;;;;;5006678;28;20201;-54
2023/09/27 14:29:40;;;;;;;2.90;2.70;;;;;;;;;;5006441;28;20182;-54
2023/09/27 14:32:06;;;;;;;2.60;2.40;;;;;;;;;;5006864;28;20178;-54
2023/09/27 14:34:34;;;;;;;2.83;2.63;;;;;;;;;;5006569;28;20270;-55
2023/09/27 14:37:00;;;;;;;2.83;2.63;;;;;;;;;;5004419;28;20182;-55
2023/09/27 14:39:27;;;;;;;3.10;2.80;;;;;;;;;;4991197;28;20671;-56
2023/09/27 14:41:54;;;;;;;2.80;2.53;;;;;;;;;;5007289;28;20186;-54
2023/09/27 14:44:20;;;;;;;2.60;2.40;;;;;;;;;;5007200;28;20179;-52
2023/09/27 14:46:47;;;;;;;2.70;2.50;;;;;;;;;;4989644;28;20209;-54